createdAt,value
2022-10-19T00:18:56.651Z,228
2022-10-19T00:38:56.658Z,225
2022-10-19T00:58:56.618Z,233
2022-10-19T01:18:56.084Z,230
2022-10-19T01:38:56.582Z,222
2022-10-19T01:58:56.566Z,229
2022-10-19T02:18:56.337Z,230
2022-10-19T02:38:56.527Z,219
2022-10-19T02:58:56.505Z,226
2022-10-19T03:18:56.482Z,221
2022-10-19T03:38:55.983Z,230
2022-10-19T03:58:55.935Z,224
2022-10-19T04:18:56.422Z,221
2022-10-19T04:38:56.207Z,231
2022-10-19T04:58:56.384Z,230
2022-10-19T05:18:56.377Z,220
2022-10-19T05:38:56.336Z,229
2022-10-19T05:58:55.830Z,231
2022-10-19T06:18:55.815Z,239
2022-10-19T06:38:56.299Z,234
2022-10-19T06:58:56.267Z,230
2022-10-19T07:18:56.045Z,232
2022-10-19T07:38:56.244Z,240
2022-10-19T07:58:55.721Z,224
2022-10-19T08:18:56.204Z,235
2022-10-19T08:38:56.179Z,235
2022-10-19T08:58:56.156Z,228
2022-10-19T09:18:56.111Z,220
2022-10-19T09:38:55.882Z,202
2022-10-19T09:58:56.062Z,203
2022-10-19T10:18:56.031Z,200
2022-10-19T10:38:55.839Z,179
2022-10-19T10:58:55.987Z,203
2022-10-19T11:18:56.095Z,194
2022-10-19T11:38:55.700Z,199
2022-10-19T11:58:55.878Z,193
2022-10-19T12:18:55.875Z,194
2022-10-19T12:38:59.956Z,205
2022-10-19T12:58:55.613Z,227
2022-10-19T13:18:55.781Z,226
2022-10-19T13:38:55.736Z,230
2022-10-19T13:58:55.717Z,215
2022-10-19T14:18:55.693Z,224
2022-10-19T14:38:55.656Z,227
2022-10-19T14:58:55.629Z,223
2022-10-19T15:39:01.494Z,225
2022-10-19T15:58:55.071Z,223
2022-10-19T16:18:55.519Z,228
2022-10-19T16:38:55.490Z,222
2022-10-19T16:58:55.485Z,227
2022-10-19T17:18:55.451Z,225
2022-10-19T17:38:54.955Z,230
2022-10-19T17:58:55.400Z,226
2022-10-19T18:18:55.386Z,235
2022-10-19T18:38:55.356Z,234
2022-10-19T18:58:55.348Z,233
2022-10-19T19:18:55.320Z,221
2022-10-19T19:38:55.278Z,215
2022-10-19T19:58:55.260Z,233
2022-10-19T20:18:55.236Z,239
2022-10-19T20:38:55.234Z,232
2022-10-19T20:58:54.717Z,234
2022-10-19T21:18:55.169Z,231
2022-10-19T21:38:55.161Z,233
2022-10-19T21:58:55.130Z,222
2022-10-19T22:18:54.608Z,229
2022-10-19T22:38:55.109Z,234
2022-10-19T22:58:55.067Z,229
2022-10-19T23:18:55.043Z,228
2022-10-19T23:38:55.023Z,239
2022-10-19T23:58:55.000Z,236
